createdAt,value
2018-10-19T00:00:54.888Z,57.47
2018-10-19T00:03:23.579Z,59.53
2018-10-19T00:05:52.284Z,61.50
2018-10-19T00:08:21.131Z,62.17
2018-10-19T00:10:50.028Z,60.50
2018-10-19T00:13:18.751Z,59.38
2018-10-19T00:15:47.622Z,59.55
2018-10-19T00:18:16.274Z,60.67
2018-10-19T00:20:45.059Z,60.33
2018-10-19T00:23:13.860Z,59.18
2018-10-19T00:25:42.603Z,58.90
2018-10-19T00:28:11.418Z,59.13
2018-10-19T00:30:40.138Z,61.17
2018-10-19T00:33:08.837Z,60.00
2018-10-19T00:35:37.554Z,60.35
2018-10-19T00:38:06.663Z,59.05
2018-10-19T00:40:35.500Z,60.70
2018-10-19T00:43:04.261Z,60.38
2018-10-19T00:45:38.379Z,60.33
2018-10-19T00:48:15.800Z,60.00
2018-10-19T00:50:45.024Z,60.98
2018-10-19T00:53:14.005Z,61.45
2018-10-19T00:55:42.891Z,62.43
2018-10-19T00:58:11.715Z,61.68
2018-10-19T01:00:41.581Z,59.53
2018-10-19T01:03:10.556Z,60.30
2018-10-19T01:05:40.165Z,59.48
2018-10-19T01:08:09.625Z,61.45
2018-10-19T01:10:38.351Z,61.45
2018-10-19T01:13:07.490Z,59.03
2018-10-19T01:15:36.947Z,60.35
2018-10-19T01:18:05.786Z,56.42
2018-10-19T01:20:34.690Z,58.48
2018-10-19T01:23:03.428Z,61.42
2018-10-19T01:25:32.955Z,59.90
2018-10-19T01:28:04.444Z,59.80
2018-10-19T01:30:33.135Z,57.83
2018-10-19T01:33:01.934Z,58.92
2018-10-19T01:35:31.325Z,59.75
2018-10-19T01:38:00.040Z,61.13
2018-10-19T01:40:28.740Z,60.23
2018-10-19T01:42:57.497Z,59.45
2018-10-19T01:45:26.184Z,62.78
2018-10-19T01:47:54.850Z,63.48
2018-10-19T01:50:23.780Z,65.17
2018-10-19T01:52:52.532Z,62.80
2018-10-19T01:55:21.431Z,64.25
2018-10-19T01:57:51.166Z,67.82
2018-10-19T02:00:20.506Z,68.33
2018-10-19T02:02:49.299Z,66.30
2018-10-19T02:05:18.098Z,67.55
2018-10-19T02:07:46.996Z,71.45
2018-10-19T02:10:16.597Z,72.65
2018-10-19T02:12:45.403Z,73.75
2018-10-19T02:15:14.470Z,70.32
2018-10-19T02:17:43.210Z,67.65
2018-10-19T02:20:11.911Z,69.30
2018-10-19T02:22:40.692Z,70.30
2018-10-19T02:25:12.100Z,70.28
2018-10-19T02:27:40.855Z,70.00
2018-10-19T02:30:09.555Z,71.28
2018-10-19T02:32:38.312Z,70.00
2018-10-19T02:35:08.493Z,69.92
2018-10-19T02:37:37.118Z,68.83
2018-10-19T02:40:06.851Z,71.00
2018-10-19T02:42:36.055Z,72.82
2018-10-19T02:45:05.138Z,71.02
2018-10-19T02:47:33.869Z,73.75
2018-10-19T02:50:02.775Z,77.05
2018-10-19T02:52:31.518Z,76.47
2018-10-19T02:55:00.371Z,75.03
2018-10-19T02:57:28.948Z,73.70
2018-10-19T02:59:57.651Z,74.62
2018-10-19T03:02:26.500Z,74.30
2018-10-19T03:04:55.258Z,79.60
2018-10-19T03:07:24.101Z,80.10
2018-10-19T03:09:52.996Z,79.80
2018-10-19T03:12:21.597Z,77.37
2018-10-19T03:14:50.392Z,75.35
2018-10-19T03:17:19.122Z,77.80
2018-10-19T03:19:47.779Z,81.10
2018-10-19T03:22:16.497Z,81.93
2018-10-19T03:24:45.361Z,81.65
2018-10-19T03:27:14.142Z,83.67
2018-10-19T03:29:42.983Z,80.50
2018-10-19T03:32:12.016Z,80.97
2018-10-19T03:34:42.798Z,79.15
2018-10-19T03:37:11.491Z,81.05
2018-10-19T03:39:40.481Z,79.63
2018-10-19T03:42:09.183Z,80.97
2018-10-19T03:44:38.003Z,81.63
2018-10-19T03:47:06.930Z,80.42
2018-10-19T03:49:35.563Z,79.53
2018-10-19T03:52:04.231Z,77.62
2018-10-19T03:54:33.019Z,76.60
2018-10-19T03:57:01.789Z,80.05
2018-10-19T03:59:31.031Z,77.87
2018-10-19T04:01:59.862Z,79.92
2018-10-19T04:04:28.637Z,77.78
2018-10-19T04:06:57.415Z,75.10
2018-10-19T04:09:26.212Z,73.87
2018-10-19T04:11:54.801Z,73.97
2018-10-19T04:14:23.488Z,69.63
2018-10-19T04:16:53.327Z,71.53
2018-10-19T04:19:22.286Z,74.17
2018-10-19T04:21:52.056Z,77.87
2018-10-19T04:24:20.853Z,79.58
2018-10-19T04:26:49.535Z,82.35
2018-10-19T04:29:18.315Z,83.17
2018-10-19T04:31:47.123Z,85.28
2018-10-19T04:34:15.888Z,85.13
2018-10-19T04:36:44.759Z,82.90
2018-10-19T04:39:13.766Z,85.63
2018-10-19T04:41:42.489Z,85.45
2018-10-19T04:44:11.231Z,86.17
2018-10-19T04:46:41.498Z,89.00
2018-10-19T04:49:10.154Z,88.87
2018-10-19T04:51:39.996Z,87.42
2018-10-19T04:54:08.775Z,89.67
2018-10-19T04:56:37.871Z,93.52
2018-10-19T04:59:06.857Z,92.62
2018-10-19T05:01:35.507Z,91.30
2018-10-19T05:04:04.777Z,93.05
2018-10-19T05:06:33.569Z,90.12
2018-10-19T05:09:10.071Z,91.95
2018-10-19T05:11:40.634Z,93.97
2018-10-19T05:14:10.804Z,90.10
2018-10-19T05:16:39.399Z,87.08
2018-10-19T05:19:08.529Z,86.67
2018-10-19T05:21:40.241Z,87.10
2018-10-19T05:24:09.725Z,90.60
2018-10-19T05:26:41.035Z,89.73
2018-10-19T05:29:10.191Z,95.72
2018-10-19T05:31:49.647Z,93.85
2018-10-19T05:34:23.803Z,98.85
2018-10-19T05:36:52.733Z,98.40
2018-10-19T05:39:21.487Z,93.33
2018-10-19T05:41:50.237Z,91.87
2018-10-19T05:44:18.993Z,97.92
2018-10-19T05:46:47.623Z,95.05
2018-10-19T05:49:16.250Z,90.92
2018-10-19T05:51:44.914Z,85.77
2018-10-19T05:54:15.002Z,91.42
2018-10-19T05:56:43.859Z,93.03
2018-10-19T05:59:12.573Z,95.85
2018-10-19T06:01:41.180Z,96.72
2018-10-19T06:04:11.315Z,93.12
2018-10-19T06:06:40.090Z,92.88
2018-10-19T06:09:10.045Z,92.47
2018-10-19T06:11:38.796Z,93.77
2018-10-19T06:14:08.536Z,92.17
2018-10-19T06:16:37.400Z,92.57
2018-10-19T06:19:06.454Z,89.57
2018-10-19T06:21:35.158Z,86.75
2018-10-19T06:24:03.867Z,90.40
2018-10-19T06:26:34.689Z,90.97
2018-10-19T06:29:03.610Z,88.82
2018-10-19T06:31:32.271Z,87.08
2018-10-19T06:34:00.995Z,90.57
2018-10-19T06:36:31.187Z,90.07
2018-10-19T06:38:59.947Z,91.02
2018-10-19T06:41:28.503Z,88.87
2018-10-19T06:43:57.502Z,90.15
2018-10-19T06:46:26.436Z,87.60
2018-10-19T06:48:55.096Z,85.95
2018-10-19T06:51:24.756Z,87.27
2018-10-19T06:53:53.488Z,89.28
2018-10-19T06:56:22.238Z,86.17
2018-10-19T06:58:51.005Z,86.32
2018-10-19T07:01:20.914Z,84.15
2018-10-19T07:03:49.698Z,80.45
2018-10-19T07:06:18.470Z,84.00
2018-10-19T07:08:47.376Z,83.47
2018-10-19T07:11:16.083Z,85.10
2018-10-19T07:13:45.022Z,83.27
2018-10-19T07:16:13.916Z,83.45
2018-10-19T07:18:42.687Z,83.20
2018-10-19T07:21:11.399Z,80.87
2018-10-19T07:23:40.144Z,79.87
2018-10-19T07:26:09.098Z,80.20
2018-10-19T07:28:38.398Z,77.00
2018-10-19T07:31:07.304Z,75.97
2018-10-19T07:33:42.410Z,76.33
2018-10-19T07:36:11.343Z,73.45
2018-10-19T07:38:40.137Z,68.60
2018-10-19T07:41:08.927Z,75.00
2018-10-19T07:43:38.580Z,71.55
2018-10-19T07:46:07.296Z,65.28
2018-10-19T07:48:36.267Z,66.62
2018-10-19T07:51:05.082Z,68.10
2018-10-19T07:53:34.165Z,70.05
2018-10-19T07:56:03.081Z,69.58
2018-10-19T07:58:31.701Z,73.95
2018-10-19T08:01:00.387Z,69.60
2018-10-19T08:03:29.178Z,70.08
2018-10-19T08:05:57.966Z,68.05
2018-10-19T08:08:26.800Z,67.80
2018-10-19T08:10:55.867Z,70.60
2018-10-19T08:13:24.679Z,70.97
2018-10-19T08:15:53.535Z,73.60
2018-10-19T08:18:22.501Z,74.58
2018-10-19T08:20:51.552Z,73.83
2018-10-19T08:23:20.559Z,73.95
2018-10-19T08:25:49.698Z,76.20
2018-10-19T08:28:18.636Z,78.92
2018-10-19T08:30:47.643Z,80.13
2018-10-19T08:33:18.613Z,85.20
2018-10-19T08:35:47.282Z,87.90
2018-10-19T08:38:16.000Z,86.63
2018-10-19T08:40:44.836Z,82.90
2018-10-19T08:43:13.785Z,80.20
2018-10-19T08:45:42.623Z,78.45
2018-10-19T08:48:11.394Z,87.20
2018-10-19T08:50:40.779Z,78.12
2018-10-19T08:53:10.759Z,80.80
2018-10-19T08:55:39.541Z,75.97
2018-10-19T08:58:08.413Z,74.62
2018-10-19T09:00:37.098Z,75.52
2018-10-19T09:03:06.411Z,73.00
2018-10-19T09:05:35.096Z,75.55
2018-10-19T09:08:04.043Z,73.50
2018-10-19T09:10:32.904Z,78.17
2018-10-19T09:13:01.589Z,78.80
2018-10-19T09:15:30.315Z,81.50
2018-10-19T09:17:58.978Z,77.27
2018-10-19T09:20:27.889Z,70.90
2018-10-19T09:22:56.876Z,69.22
2018-10-19T09:25:25.661Z,67.65
2018-10-19T09:27:57.031Z,68.05
2018-10-19T09:30:27.503Z,69.00
2018-10-19T09:32:56.974Z,69.60
2018-10-19T09:35:26.145Z,69.17
2018-10-19T09:37:54.872Z,69.70
2018-10-19T09:40:23.655Z,69.42
2018-10-19T09:42:52.729Z,69.77
2018-10-19T09:45:27.718Z,71.97
2018-10-19T09:47:56.689Z,71.67
2018-10-19T09:50:32.241Z,73.50
2018-10-19T09:53:01.258Z,76.42
2018-10-19T09:55:30.211Z,74.40
2018-10-19T09:58:00.280Z,73.83
2018-10-19T10:00:41.932Z,73.47
2018-10-19T10:03:20.292Z,79.22
2018-10-19T10:05:53.142Z,79.58
2018-10-19T10:08:22.543Z,80.62
2018-10-19T10:10:51.293Z,84.20
2018-10-19T10:13:20.130Z,78.28
2018-10-19T10:15:54.096Z,74.72
2018-10-19T10:18:23.275Z,72.95
2018-10-19T10:20:52.351Z,69.15
2018-10-19T10:23:21.344Z,69.70
2018-10-19T10:25:50.075Z,67.55
2018-10-19T10:28:18.860Z,68.67
2018-10-19T10:30:47.953Z,67.55
2018-10-19T10:33:16.647Z,67.10
2018-10-19T10:35:47.060Z,64.42
2018-10-19T10:38:16.748Z,64.15
2018-10-19T10:40:45.456Z,63.80
2018-10-19T10:43:14.384Z,65.90
2018-10-19T10:45:43.419Z,62.50
2018-10-19T10:48:13.798Z,59.75
2018-10-19T10:50:43.029Z,61.92
2018-10-19T10:53:12.042Z,61.48
2018-10-19T10:55:40.766Z,61.33
2018-10-19T10:58:09.636Z,57.17
2018-10-19T11:00:38.267Z,57.00
2018-10-19T11:03:09.463Z,64.22
2018-10-19T11:05:38.526Z,60.97
2018-10-19T11:08:07.780Z,62.62
2018-10-19T11:10:37.227Z,64.30
2018-10-19T11:13:06.244Z,66.53
2018-10-19T11:15:35.042Z,68.35
2018-10-19T11:18:03.744Z,67.25
2018-10-19T11:20:32.556Z,65.40
2018-10-19T11:23:01.318Z,65.75
2018-10-19T11:25:30.086Z,66.70
2018-10-19T11:27:59.037Z,67.70
2018-10-19T11:30:33.428Z,66.70
2018-10-19T11:33:02.163Z,60.10
2018-10-19T11:35:31.184Z,56.13
2018-10-19T11:37:59.963Z,53.42
2018-10-19T11:40:34.512Z,52.83
2018-10-19T11:43:03.498Z,53.23
2018-10-19T11:45:33.346Z,48.58
2018-10-19T11:48:02.224Z,49.75
2018-10-19T11:50:31.154Z,46.68
2018-10-19T11:53:00.170Z,48.63
2018-10-19T11:55:28.943Z,49.85
2018-10-19T11:57:57.642Z,51.50
2018-10-19T12:00:26.284Z,50.08
2018-10-19T12:02:55.145Z,48.83
2018-10-19T12:05:23.955Z,49.93
2018-10-19T12:07:52.772Z,50.73
2018-10-19T12:10:27.038Z,49.35
2018-10-19T12:13:01.531Z,47.78
2018-10-19T12:15:30.743Z,49.15
2018-10-19T12:17:59.834Z,48.48
2018-10-19T12:20:28.561Z,46.55
2018-10-19T12:22:57.480Z,43.68
2018-10-19T12:25:26.255Z,49.30
2018-10-19T12:27:54.998Z,48.02
2018-10-19T12:30:23.628Z,47.98
2018-10-19T12:32:52.866Z,48.20
2018-10-19T12:35:21.612Z,47.23
2018-10-19T12:37:50.397Z,46.37
2018-10-19T12:40:19.145Z,48.98
2018-10-19T12:42:48.062Z,49.85
2018-10-19T12:47:31.788Z,46.28
2018-10-19T12:50:00.795Z,44.07
2018-10-19T12:52:29.589Z,43.73
2018-10-19T12:54:59.226Z,46.98
2018-10-19T12:57:28.215Z,47.67
2018-10-19T12:59:57.056Z,48.05
2018-10-19T13:02:25.696Z,50.70
2018-10-19T13:04:54.911Z,48.85
2018-10-19T13:07:25.023Z,47.30
2018-10-19T13:09:54.570Z,45.55
2018-10-19T13:12:24.046Z,46.13
2018-10-19T13:14:52.951Z,45.78
2018-10-19T13:17:35.002Z,46.37
2018-10-19T13:20:03.874Z,46.60
2018-10-19T13:22:32.565Z,46.10
2018-10-19T13:25:01.433Z,47.48
2018-10-19T13:27:30.179Z,48.25
2018-10-19T13:29:59.284Z,46.05
2018-10-19T13:32:27.918Z,46.13
2018-10-19T13:34:56.673Z,44.67
2018-10-19T13:37:25.364Z,42.80
2018-10-19T13:39:54.198Z,43.25
2018-10-19T13:42:22.903Z,45.55
2018-10-19T13:44:51.597Z,44.35
2018-10-19T13:47:20.393Z,42.88
2018-10-19T13:49:49.053Z,44.15
2018-10-19T13:52:17.964Z,45.47
2018-10-19T13:54:46.961Z,45.83
2018-10-19T13:57:16.263Z,46.02
2018-10-19T13:59:45.126Z,44.58
2018-10-19T14:02:13.875Z,43.63
2018-10-19T14:04:42.782Z,44.95
2018-10-19T14:07:11.786Z,46.25
2018-10-19T14:09:40.567Z,45.73
2018-10-19T14:12:09.351Z,45.97
2018-10-19T14:14:38.285Z,46.68
2018-10-19T14:17:07.219Z,44.83
2018-10-19T14:19:36.258Z,46.25
2018-10-19T14:22:05.088Z,46.63
2018-10-19T14:24:34.593Z,47.93
2018-10-19T14:27:04.502Z,57.38
2018-10-19T14:29:33.862Z,48.13
2018-10-19T14:32:10.599Z,48.33
2018-10-19T14:34:39.591Z,48.10
2018-10-19T14:37:08.341Z,48.73
2018-10-19T14:39:37.230Z,48.87
2018-10-19T14:42:08.776Z,48.48
2018-10-19T14:44:41.034Z,46.63
2018-10-19T14:47:11.968Z,48.48
2018-10-19T14:49:40.826Z,51.15
2018-10-19T14:52:09.804Z,50.65
2018-10-19T14:54:38.660Z,50.38
2018-10-19T14:57:07.241Z,51.68
2018-10-19T14:59:35.902Z,52.88
2018-10-19T15:02:05.004Z,54.83
2018-10-19T15:04:35.006Z,58.73
2018-10-19T15:07:03.751Z,58.80
2018-10-19T15:09:32.684Z,56.73
2018-10-19T15:12:01.343Z,62.03
2018-10-19T15:14:30.044Z,63.60
2018-10-19T15:16:59.774Z,60.60
2018-10-19T15:19:28.567Z,63.33
2018-10-19T15:21:57.487Z,61.75
2018-10-19T15:24:26.293Z,61.83
2018-10-19T15:26:55.996Z,62.30
2018-10-19T15:29:25.255Z,61.95
2018-10-19T15:31:53.988Z,66.37
2018-10-19T15:34:23.197Z,64.12
2018-10-19T15:36:52.047Z,62.93
2018-10-19T15:39:30.349Z,67.55
2018-10-19T15:41:59.987Z,65.30
2018-10-19T15:44:33.816Z,64.45
2018-10-19T15:47:05.524Z,71.82
2018-10-19T15:49:34.552Z,69.77
2018-10-19T15:52:03.590Z,66.15
2018-10-19T15:54:32.500Z,65.17
2018-10-19T15:57:01.459Z,65.10
2018-10-19T15:59:34.257Z,67.58
2018-10-19T16:02:03.671Z,66.30
2018-10-19T16:04:36.036Z,67.30
2018-10-19T16:07:05.958Z,63.33
2018-10-19T16:09:41.732Z,68.47
2018-10-19T16:12:10.415Z,71.82
2018-10-19T16:14:39.131Z,70.40
2018-10-19T16:17:07.950Z,70.28
2018-10-19T16:19:37.301Z,74.60
2018-10-19T16:22:07.730Z,69.50
2018-10-19T16:24:37.272Z,70.60
2018-10-19T16:27:06.099Z,74.47
2018-10-19T16:29:34.674Z,70.47
2018-10-19T16:32:06.069Z,74.47
2018-10-19T16:34:34.821Z,74.50
2018-10-19T16:37:03.475Z,76.40
2018-10-19T16:39:32.195Z,74.82
2018-10-19T16:42:00.970Z,72.78
2018-10-19T16:44:29.535Z,72.72
2018-10-19T16:47:02.416Z,71.70
2018-10-19T16:49:33.262Z,74.22
2018-10-19T16:52:02.466Z,74.70
2018-10-19T16:54:31.162Z,71.87
2018-10-19T16:56:59.857Z,74.00
2018-10-19T16:59:28.584Z,73.02
2018-10-19T17:01:57.319Z,71.77
2018-10-19T17:04:28.732Z,72.95
2018-10-19T17:06:57.331Z,73.37
2018-10-19T17:09:30.646Z,72.17
2018-10-19T17:12:07.374Z,74.17
2018-10-19T17:14:36.211Z,73.07
2018-10-19T17:17:05.578Z,73.70
2018-10-19T17:19:34.256Z,75.13
2018-10-19T17:22:05.646Z,72.32
2018-10-19T17:24:36.731Z,76.00
2018-10-19T17:27:06.794Z,74.30
2018-10-19T17:29:35.443Z,72.22
2018-10-19T17:32:04.210Z,72.03
2018-10-19T17:34:34.521Z,74.50
2018-10-19T17:37:03.704Z,72.53
2018-10-19T17:39:32.411Z,70.17
2018-10-19T17:42:01.138Z,70.80
2018-10-19T17:44:29.873Z,71.25
2018-10-19T17:46:58.648Z,71.97
2018-10-19T17:49:28.278Z,69.05
2018-10-19T17:51:57.006Z,68.57
2018-10-19T17:54:26.020Z,65.42
2018-10-19T17:56:54.926Z,69.12
2018-10-19T17:59:28.404Z,69.85
2018-10-19T18:01:57.373Z,72.25
2018-10-19T18:04:26.229Z,69.90
2018-10-19T18:06:54.941Z,72.15
2018-10-19T18:09:26.850Z,71.35
2018-10-19T18:11:55.513Z,72.05
2018-10-19T18:14:24.221Z,71.40
2018-10-19T18:16:53.616Z,72.65
2018-10-19T18:19:22.216Z,69.77
2018-10-19T18:21:51.073Z,70.35
2018-10-19T18:24:20.375Z,76.82
2018-10-19T18:26:49.286Z,74.35
2018-10-19T18:29:19.846Z,77.87
2018-10-19T18:31:48.539Z,74.90
2018-10-19T18:34:17.190Z,70.57
2018-10-19T18:36:46.258Z,72.58
2018-10-19T18:39:15.064Z,73.60
2018-10-19T18:41:45.065Z,72.87
2018-10-19T18:44:13.806Z,71.33
2018-10-19T18:46:42.304Z,72.75
2018-10-19T18:49:12.036Z,72.43
2018-10-19T18:51:41.347Z,67.82
2018-10-19T18:54:10.398Z,72.85
2018-10-19T18:56:39.215Z,69.45
2018-10-19T18:59:08.004Z,69.40
2018-10-19T19:01:36.698Z,71.72
2018-10-19T19:04:06.426Z,72.58
2018-10-19T19:06:35.096Z,71.80
2018-10-19T19:09:03.859Z,71.95
2018-10-19T19:11:32.789Z,72.23
2018-10-19T19:14:01.344Z,69.97
2018-10-19T19:16:30.877Z,70.57
2018-10-19T19:18:59.507Z,71.05
2018-10-19T19:21:28.190Z,69.92
2018-10-19T19:24:01.882Z,72.95
2018-10-19T19:26:30.494Z,73.37
2018-10-19T19:28:59.956Z,73.50
2018-10-19T19:31:28.578Z,74.92
2018-10-19T19:34:02.967Z,71.53
2018-10-19T19:36:31.611Z,75.47
2018-10-19T19:39:00.289Z,75.85
2018-10-19T19:41:34.264Z,77.03
2018-10-19T19:44:03.575Z,77.42
2018-10-19T19:46:32.286Z,78.42
2018-10-19T19:49:07.205Z,77.60
2018-10-19T19:51:35.776Z,73.90
2018-10-19T19:54:04.820Z,75.80
2018-10-19T19:56:33.598Z,76.17
2018-10-19T19:59:03.844Z,72.35
2018-10-19T20:01:32.820Z,72.87
2018-10-19T20:04:03.465Z,72.85
2018-10-19T20:06:32.523Z,74.27
2018-10-19T20:09:01.634Z,77.35
2018-10-19T20:11:30.354Z,75.15
2018-10-19T20:13:59.172Z,75.93
2018-10-19T20:16:27.795Z,74.82
2018-10-19T20:18:56.424Z,80.50
2018-10-19T20:21:25.909Z,77.95
2018-10-19T20:23:54.830Z,79.92
2018-10-19T20:26:23.538Z,73.47
2018-10-19T20:28:53.580Z,74.17
2018-10-19T20:31:22.701Z,74.60
2018-10-19T20:33:51.358Z,72.72
2018-10-19T20:36:22.581Z,76.72
2018-10-19T20:38:51.390Z,75.25
2018-10-19T20:41:22.306Z,71.65
2018-10-19T20:43:51.406Z,74.00
2018-10-19T20:46:20.096Z,66.82
2018-10-19T20:48:49.334Z,70.30
2018-10-19T20:51:19.025Z,69.83
2018-10-19T20:53:48.055Z,71.77
2018-10-19T20:56:16.791Z,69.35
2018-10-19T20:58:50.797Z,73.72
2018-10-19T21:01:19.546Z,77.47
2018-10-19T21:03:48.211Z,74.55
2018-10-19T21:06:17.182Z,70.97
2018-10-19T21:08:46.049Z,73.50
2018-10-19T21:11:14.757Z,73.15
2018-10-19T21:13:43.579Z,74.10
2018-10-19T21:16:13.585Z,72.10
2018-10-19T21:18:42.507Z,73.85
2018-10-19T21:21:11.399Z,79.12
2018-10-19T21:23:40.146Z,73.75
2018-10-19T21:26:09.437Z,78.80
2018-10-19T21:28:38.184Z,80.87
2018-10-19T21:31:06.922Z,76.30
2018-10-19T21:33:35.619Z,77.90
2018-10-19T21:36:04.605Z,80.40
2018-10-19T21:38:33.306Z,75.42
2018-10-19T21:41:02.202Z,82.50
2018-10-19T21:43:31.021Z,78.57
2018-10-19T21:46:01.878Z,79.60
2018-10-19T21:48:30.891Z,81.65
2018-10-19T21:50:59.897Z,77.30
2018-10-19T21:53:30.471Z,80.17
2018-10-19T21:55:59.333Z,75.85
2018-10-19T21:58:28.007Z,81.42
2018-10-19T22:00:56.726Z,79.35
2018-10-19T22:03:25.635Z,79.53
2018-10-19T22:05:54.329Z,82.47
2018-10-19T22:08:23.008Z,84.50
2018-10-19T22:10:51.938Z,84.65
2018-10-19T22:13:20.703Z,80.45
2018-10-19T22:15:49.387Z,81.67
2018-10-19T22:18:18.133Z,83.72
2018-10-19T22:20:46.976Z,85.53
2018-10-19T22:23:16.242Z,88.03
2018-10-19T22:25:45.056Z,91.15
2018-10-19T22:28:14.838Z,91.63
2018-10-19T22:30:43.601Z,85.77
2018-10-19T22:33:14.132Z,86.32
2018-10-19T22:35:42.903Z,87.92
2018-10-19T22:38:11.585Z,84.37
2018-10-19T22:40:40.290Z,81.40
2018-10-19T22:43:08.992Z,78.25
2018-10-19T22:45:37.646Z,77.32
2018-10-19T22:48:08.161Z,81.45
2018-10-19T22:50:36.909Z,81.60
2018-10-19T22:53:05.838Z,81.37
2018-10-19T22:55:34.578Z,82.67
2018-10-19T22:58:03.362Z,80.75
2018-10-19T23:00:32.026Z,82.75
2018-10-19T23:03:01.012Z,85.42
2018-10-19T23:05:29.838Z,83.50
2018-10-19T23:07:58.550Z,77.12
2018-10-19T23:10:29.302Z,83.03
2018-10-19T23:12:58.035Z,79.77
2018-10-19T23:15:28.543Z,83.72
2018-10-19T23:17:57.365Z,80.00
2018-10-19T23:20:27.231Z,81.43
2018-10-19T23:22:56.049Z,84.63
2018-10-19T23:25:24.921Z,81.70
2018-10-19T23:27:53.702Z,83.37
2018-10-19T23:30:22.482Z,83.52
2018-10-19T23:32:51.331Z,85.60
2018-10-19T23:35:20.842Z,84.87
2018-10-19T23:37:49.666Z,81.08
2018-10-19T23:40:18.442Z,81.97
2018-10-19T23:42:47.118Z,84.28
2018-10-19T23:45:16.215Z,83.65
2018-10-19T23:47:45.075Z,82.78
2018-10-19T23:50:13.790Z,81.85
2018-10-19T23:52:42.543Z,78.00
2018-10-19T23:55:11.793Z,84.85
2018-10-19T23:57:40.517Z,80.40
